Time;durP1;ratioP1;P1;durP2;ratioP2;P2;SDS_P1;SDS_P2;PMS_P1;PMS_P2;Temp;Humidity;BMP_temperature;BMP_pressure;BME280_temperature;BME280_humidity;BME280_pressure;Samples;Min_cycle;Max_cycle;Signal;HPM_P1;HPM_P2
2022/12/08 00:09:20;;;;;;;1.67;0.50;;;;;;;18.14;42.20;101135.50;16120576;19;129944;-41
2022/12/08 00:10:16;;;;;;;2.72;0.52;;;;;;;18.12;42.31;101125.75;16117134;19;130865;-40
2022/12/08 00:16:01;;;;;;;4.32;0.50;;;;;;;18.11;42.13;101119.34;16120729;19;129466;-41
2022/12/08 00:21:22;;;;;;;1.43;0.40;;;;;;;18.07;42.06;101098.78;16117144;19;130459;-40
2022/12/08 00:26:44;;;;;;;0.85;0.40;;;;;;;18.05;41.97;101081.56;16125826;19;129551;-40
2022/12/08 00:32:06;;;;;;;0.93;0.38;;;;;;;18.03;42.14;101078.19;16133257;19;129914;-40
2022/12/08 00:37:28;;;;;;;5.68;0.50;;;;;;;18.02;42.15;101082.03;16130756;19;129531;-40
2022/12/08 00:42:50;;;;;;;1.25;0.50;;;;;;;17.99;42.32;101074.19;16134797;19;130133;-40
2022/12/08 00:48:11;;;;;;;0.52;0.38;;;;;;;17.97;42.25;101076.38;16133017;19;129973;-40
2022/12/08 00:53:33;;;;;;;3.08;0.70;;;;;;;17.95;42.37;101070.22;16134157;19;129374;-40
2022/12/08 00:58:55;;;;;;;1.60;0.45;;;;;;;17.94;42.44;101068.53;16133104;19;129286;-41
2022/12/08 01:04:18;;;;;;;0.70;0.40;;;;;;;17.92;42.35;101065.16;16128888;19;130855;-43
2022/12/08 01:09:40;;;;;;;1.15;0.30;;;;;;;17.89;42.05;101065.63;16131295;19;130112;-41
2022/12/08 01:15:01;;;;;;;1.17;0.60;;;;;;;17.89;42.00;101055.41;16133120;19;129694;-40
2022/12/08 01:20:23;;;;;;;0.85;0.38;;;;;;;17.89;42.44;101051.78;16126964;19;129537;-40
2022/12/08 01:25:45;;;;;;;0.50;0.40;;;;;;;17.86;42.21;101047.59;16126524;19;129178;-40
2022/12/08 01:31:18;;;;;;;1.20;0.40;;;;;;;17.87;42.10;101040.97;16122763;19;129988;-42
2022/12/08 01:36:41;;;;;;;0.85;0.50;;;;;;;17.83;42.11;101040.63;16121549;19;129698;-41
2022/12/08 01:42:02;;;;;;;0.82;0.30;;;;;;;17.82;42.28;101044.47;16124498;19;129672;-40
2022/12/08 01:47:29;;;;;;;0.55;0.40;;;;;;;17.82;42.33;101049.13;16121180;19;129344;-43
2022/12/08 01:53:04;;;;;;;1.27;0.40;;;;;;;17.81;41.97;101033.59;16125431;19;129721;-41
2022/12/08 01:58:33;;;;;;;0.98;0.40;;;;;;;17.77;42.04;101032.41;16121693;19;129964;-40
2022/12/08 02:04:00;;;;;;;1.00;0.30;;;;;;;17.77;42.16;101024.94;16123897;19;129389;-41
2022/12/08 02:09:23;;;;;;;0.95;0.32;;;;;;;17.75;42.17;101021.56;16121548;19;129393;-44
2022/12/08 02:14:45;;;;;;;0.43;0.25;;;;;;;17.73;42.02;101017.38;16120512;19;130502;-40
2022/12/08 02:20:52;;;;;;;1.77;0.20;;;;;;;17.72;42.42;101018.44;15970705;19;2992952;-41
2022/12/08 02:26:32;;;;;;;1.07;0.70;;;;;;;17.69;42.35;101020.59;16115271;19;130679;-41
2022/12/08 02:32:21;;;;;;;0.50;0.30;;;;;;;17.70;41.95;101021.47;16114656;19;130668;-41
2022/12/08 02:37:54;;;;;;;1.52;0.40;;;;;;;17.68;41.97;101018.91;16115540;19;129321;-40
2022/12/08 02:43:24;;;;;;;1.17;0.52;;;;;;;17.68;41.90;101004.25;16114277;19;129602;-41
2022/12/08 02:48:47;;;;;;;1.88;0.50;;;;;;;17.65;42.24;101000.03;16112410;19;129752;-42
2022/12/08 02:54:09;;;;;;;1.00;0.50;;;;;;;17.64;42.21;100991.97;16113122;19;132245;-40
2022/12/08 03:00:04;;;;;;;1.98;0.50;;;;;;;17.66;41.88;100984.28;16122171;19;131085;-40
2022/12/08 03:06:04;;;;;;;0.75;0.32;;;;;;;17.62;42.10;100972.84;16120888;19;129886;-42
2022/12/08 03:11:38;;;;;;;1.58;0.32;;;;;;;17.62;41.83;100971.97;16120946;19;129747;-40
2022/12/08 03:17:01;;;;;;;0.82;0.30;;;;;;;17.59;41.87;100970.53;16122061;19;130898;-40
2022/12/08 03:22:26;;;;;;;2.15;0.47;;;;;;;17.58;42.20;100954.19;16119235;19;129450;-41
2022/12/08 03:27:49;;;;;;;0.60;0.47;;;;;;;17.56;42.21;100946.13;16121459;19;130763;-40
2022/12/08 03:33:20;;;;;;;1.10;0.50;;;;;;;17.57;41.80;100946.97;16121539;19;130720;-40
2022/12/08 03:38:44;;;;;;;1.27;0.50;;;;;;;17.54;42.17;100951.91;16122744;19;130971;-42
2022/12/08 03:44:06;;;;;;;0.50;0.50;;;;;;;17.53;42.10;100947.41;16120857;19;130332;-40
2022/12/08 03:49:28;;;;;;;0.80;0.50;;;;;;;17.52;41.99;100951.25;16120190;19;129247;-40
2022/12/08 03:54:50;;;;;;;0.55;0.50;;;;;;;17.50;42.16;100939.59;16120213;19;129925;-42
2022/12/08 04:00:14;;;;;;;0.57;0.40;;;;;;;17.51;41.78;100927.44;16120253;19;129656;-40
2022/12/08 04:05:36;;;;;;;0.60;0.50;;;;;;;17.49;41.67;100924.06;16119910;19;130267;-40
2022/12/08 04:10:58;;;;;;;0.43;0.35;;;;;;;17.47;41.89;100917.09;16117902;19;129464;-42
2022/12/08 04:16:22;;;;;;;0.35;0.32;;;;;;;17.47;41.78;100917.97;16116163;19;129794;-41
2022/12/08 04:21:45;;;;;;;0.77;0.43;;;;;;;17.45;42.09;100917.34;16117423;19;130438;-43
2022/12/08 04:27:07;;;;;;;1.02;0.40;;;;;;;17.46;41.79;100916.28;16118205;19;130760;-40
2022/12/08 04:32:28;;;;;;;0.80;0.30;;;;;;;17.45;41.76;100908.19;16116198;19;133140;-41
2022/12/08 04:37:50;;;;;;;1.05;0.30;;;;;;;17.43;41.93;100916.75;16117340;19;129483;-42
2022/12/08 04:43:12;;;;;;;1.55;0.47;;;;;;;17.43;41.99;100902.91;16115404;19;129521;-42
2022/12/08 04:48:36;;;;;;;1.00;0.50;;;;;;;17.42;41.65;100901.22;16117678;19;129910;-41
2022/12/08 04:53:58;;;;;;;0.20;0.20;;;;;;;17.41;41.69;100910.59;16117062;19;129074;-42
2022/12/08 04:59:19;;;;;;;0.70;0.40;;;;;;;17.41;42.07;100910.59;16117093;19;129740;-41
2022/12/08 05:04:41;;;;;;;0.85;0.40;;;;;;;17.40;41.55;100911.69;16114474;19;130609;-41
2022/12/08 05:10:03;;;;;;;0.40;0.40;;;;;;;17.38;41.96;100903.63;16117728;19;129844;-43
2022/12/08 05:15:26;;;;;;;2.58;0.50;;;;;;;17.38;41.86;100913.84;16127818;19;129583;-42
2022/12/08 05:20:47;;;;;;;1.48;0.40;;;;;;;17.37;41.93;100917.69;16128979;19;129479;-42
2022/12/08 05:26:09;;;;;;;0.98;0.40;;;;;;;17.35;41.82;100909.63;16132443;19;129670;-41
2022/12/08 05:31:31;;;;;;;0.52;0.30;;;;;;;17.35;41.91;100894.97;16130233;19;129102;-41
2022/12/08 05:36:53;;;;;;;1.02;0.40;;;;;;;17.34;41.81;100879.47;16128529;19;130112;-43
2022/12/08 05:42:15;;;;;;;0.63;0.25;;;;;;;17.34;41.65;100877.53;16128137;19;129460;-41
2022/12/08 05:47:43;;;;;;;0.95;0.30;;;;;;;17.31;41.76;100866.94;16130190;19;129986;-43
2022/12/08 05:53:05;;;;;;;0.50;0.30;;;;;;;17.31;41.83;100868.88;16130921;19;130183;-41
2022/12/08 05:58:27;;;;;;;2.08;0.30;;;;;;;17.30;41.94;100869.94;16130514;19;129813;-41
2022/12/08 06:03:50;;;;;;;0.30;0.30;;;;;;;17.30;41.91;100876.31;16131234;19;129666;-41
2022/12/08 06:09:11;;;;;;;0.50;0.30;;;;;;;17.30;41.54;100869.94;16126169;19;130706;-43
2022/12/08 06:14:33;;;;;;;0.55;0.38;;;;;;;17.31;41.45;100866.09;16128955;19;133603;-43
2022/12/08 06:19:55;;;;;;;1.60;0.20;;;;;;;17.29;41.84;100857.22;16127814;19;129290;-42
2022/12/08 06:25:17;;;;;;;0.40;0.20;;;;;;;17.31;41.43;100863.34;16123235;19;129308;-41
2022/12/08 06:30:38;;;;;;;0.80;0.20;;;;;;;17.29;41.56;100849.78;16127526;19;133248;-42
2022/12/08 06:36:00;;;;;;;0.60;0.30;;;;;;;17.31;41.86;100844.00;16126914;19;129536;-41
2022/12/08 06:41:22;;;;;;;0.55;0.30;;;;;;;17.31;41.40;100844.00;16126007;19;130316;-42
2022/12/08 06:46:44;;;;;;;0.30;0.28;;;;;;;17.30;41.53;100842.31;16124138;19;129728;-41
2022/12/08 06:52:06;;;;;;;2.80;0.30;;;;;;;17.29;41.87;100843.38;16125076;19;129794;-42
2022/12/08 06:57:28;;;;;;;5.03;0.40;;;;;;;17.29;41.81;100843.38;16124971;19;129648;-41
2022/12/08 07:02:49;;;;;;;0.43;0.30;;;;;;;17.29;41.60;100846.16;16121011;19;129731;-47
2022/12/08 07:08:11;;;;;;;5.38;0.68;;;;;;;17.28;41.55;100850.00;16122422;19;129762;-43
2022/12/08 07:13:33;;;;;;;5.10;0.50;;;;;;;17.26;41.61;100858.53;16121018;19;129537;-43
2022/12/08 07:18:55;;;;;;;0.98;0.40;;;;;;;17.26;41.49;100846.63;16119169;19;130462;-42
2022/12/08 07:24:17;;;;;;;4.40;0.43;;;;;;;17.23;41.59;100851.53;16120159;19;129538;-41
2022/12/08 07:29:39;;;;;;;5.97;0.50;;;;;;;17.22;41.34;100849.03;16119532;19;130036;-42
2022/12/08 07:35:00;;;;;;;4.78;0.70;;;;;;;17.21;41.75;100842.66;16116963;19;130210;-42
2022/12/08 07:40:22;;;;;;;3.13;0.73;;;;;;;17.20;41.68;100848.41;16118919;19;129445;-42
2022/12/08 07:45:44;;;;;;;2.58;0.50;;;;;;;17.18;41.45;100840.38;16119629;19;129655;-42
2022/12/08 07:51:06;;;;;;;5.10;0.70;;;;;;;17.17;41.80;100843.38;16120293;19;129033;-42
2022/12/08 07:56:28;;;;;;;1.27;0.50;;;;;;;17.17;41.77;100835.91;16119666;19;129722;-40
2022/12/08 08:01:50;;;;;;;3.03;0.40;;;;;;;17.15;41.33;100849.13;16121656;19;130750;-42
2022/12/08 08:07:32;;;;;;;1.95;0.52;;;;;;;17.14;41.35;100850.22;16119207;19;131066;-41
2022/12/08 08:12:53;;;;;;;7.10;0.73;;;;;;;17.13;41.37;100845.75;16118400;19;133221;-43
2022/12/08 08:18:15;;;;;;;0.80;0.63;;;;;;;17.13;41.32;100837.47;16117892;19;129907;-42
2022/12/08 08:23:37;;;;;;;3.03;0.50;;;;;;;17.12;41.19;100841.31;16118559;19;129397;-43
2022/12/08 08:28:59;;;;;;;1.83;0.50;;;;;;;17.12;41.32;100844.06;16116615;19;131848;-42
2022/12/08 08:34:20;;;;;;;2.88;0.82;;;;;;;17.12;41.31;100846.00;16112957;19;130020;-43
2022/12/08 08:39:42;;;;;;;3.78;0.60;;;;;;;17.11;41.68;100836.84;16117546;19;129312;-42
2022/12/08 08:45:04;;;;;;;2.55;0.40;;;;;;;17.12;41.53;100834.94;16113511;19;130816;-43
2022/12/08 08:50:26;;;;;;;2.00;0.80;;;;;;;17.13;41.27;100820.88;16127313;19;130476;-42
2022/12/08 08:55:56;;;;;;;2.55;0.60;;;;;;;17.12;41.44;100813.66;16132123;19;130128;-43
2022/12/08 09:01:22;;;;;;;5.18;0.93;;;;;;;17.13;41.20;100815.34;16133771;19;129873;-45
2022/12/08 09:06:44;;;;;;;13.32;1.30;;;;;;;17.15;40.99;100818.72;16129105;19;130221;-46
2022/12/08 09:12:07;;;;;;;11.07;1.25;;;;;;;17.19;41.04;100830.13;16130882;19;129850;-44
2022/12/08 09:17:29;;;;;;;7.15;1.40;;;;;;;17.18;41.02;100829.31;16131267;19;131797;-47
2022/12/08 09:22:50;;;;;;;5.53;1.23;;;;;;;17.16;41.00;100825.94;16126838;19;129628;-40
2022/12/08 09:28:13;;;;;;;8.20;2.05;;;;;;;17.14;40.98;100828.09;16127614;19;130324;-40
2022/12/08 09:33:35;;;;;;;8.10;1.00;;;;;;;17.11;40.94;100823.03;16129708;19;130375;-40
2022/12/08 09:38:57;;;;;;;10.40;1.05;;;;;;;17.11;40.94;100817.50;16130720;19;129890;-42
2022/12/08 09:44:40;;;;;;;10.20;1.55;;;;;;;17.11;41.41;100811.16;16129980;19;129298;-42
2022/12/08 09:50:10;;;;;;;4.35;1.02;;;;;;;17.07;41.41;100813.56;16128206;19;129668;-47
2022/12/08 09:55:44;;;;;;;4.88;1.08;;;;;;;17.09;41.14;100811.41;16127926;19;129590;-40
2022/12/08 10:01:09;;;;;;;4.78;1.13;;;;;;;17.06;41.12;100803.59;16124902;19;130887;-40
2022/12/08 10:06:45;;;;;;;5.45;1.15;;;;;;;17.04;41.41;100800.22;16127247;19;129027;-40
2022/12/08 10:12:20;;;;;;;10.68;1.27;;;;;;;17.02;40.89;100796.84;16125622;19;129351;-40
2022/12/08 10:17:48;;;;;;;3.47;1.38;;;;;;;17.03;41.33;100793.84;16125558;19;129058;-41
2022/12/08 10:23:37;;;;;;;7.20;1.10;;;;;;;17.03;40.97;100793.84;16123496;19;129911;-41
2022/12/08 10:29:01;;;;;;;4.18;0.95;;;;;;;17.01;41.34;100782.19;16122466;19;129644;-41
2022/12/08 10:34:23;;;;;;;5.47;0.90;;;;;;;17.02;41.25;100774.72;16125026;19;130056;-41
2022/12/08 10:39:45;;;;;;;3.75;0.88;;;;;;;17.02;40.98;100778.34;16124731;19;129546;-42
2022/12/08 10:45:07;;;;;;;2.78;0.93;;;;;;;17.02;40.98;100778.34;16124684;19;129570;-40
2022/12/08 10:50:34;;;;;;;3.08;0.75;;;;;;;17.04;40.91;100775.34;16124707;19;129327;-40
2022/12/08 10:56:02;;;;;;;4.13;1.00;;;;;;;17.04;40.92;100772.56;16128033;19;129362;-41
2022/12/08 11:01:26;;;;;;;2.08;0.90;;;;;;;17.00;40.91;100761.16;16119322;19;131942;-41
2022/12/08 11:06:49;;;;;;;2.50;0.80;;;;;;;17.00;40.73;100760.31;16114053;19;129610;-40
2022/12/08 11:12:16;;;;;;;7.07;1.00;;;;;;;16.99;41.23;100759.47;16105848;19;129900;-40
2022/12/08 11:17:38;;;;;;;2.17;0.93;;;;;;;16.98;40.87;100756.97;16115051;19;129676;-41
2022/12/08 11:23:00;;;;;;;3.20;1.00;;;;;;;16.98;40.72;100754.19;16122320;19;130964;-40
2022/12/08 11:28:23;;;;;;;1.55;1.05;;;;;;;16.97;40.88;100750.56;16119367;19;129245;-42
2022/12/08 11:33:46;;;;;;;5.57;1.10;;;;;;;16.96;40.58;100743.38;16121684;19;129519;-40
2022/12/08 11:39:11;;;;;;;3.05;0.90;;;;;;;16.95;41.03;100733.38;16121110;19;129488;-41
2022/12/08 11:44:56;;;;;;;3.27;1.23;;;;;;;16.95;40.73;100729.78;16123368;19;129519;-44
2022/12/08 11:50:28;;;;;;;4.20;1.10;;;;;;;16.95;40.90;100724.28;16118939;19;129761;-42
2022/12/08 11:55:57;;;;;;;2.80;1.17;;;;;;;16.93;40.58;100718.97;16120084;19;129551;-42
2022/12/08 12:01:22;;;;;;;1.85;1.05;;;;;;;16.91;40.80;100710.94;16115443;19;131593;-41
2022/12/08 12:07:11;;;;;;;2.07;1.10;;;;;;;16.93;40.46;100717.06;16122541;19;129714;-41
2022/12/08 12:12:32;;;;;;;5.07;0.98;;;;;;;16.90;40.71;100705.66;16120072;19;129423;-46
2022/12/08 12:18:39;;;;;;;6.88;1.20;;;;;;;16.90;40.61;100706.47;16119739;19;129922;-40
2022/12/08 12:24:15;;;;;;;2.25;0.93;;;;;;;16.90;40.26;100712.00;16121114;19;130490;-42
2022/12/08 12:29:49;;;;;;;3.38;1.00;;;;;;;16.89;40.26;100710.31;16125467;19;130112;-40
2022/12/08 12:35:33;;;;;;;2.17;1.00;;;;;;;16.90;40.25;100711.19;16127219;19;129728;-44
2022/12/08 12:41:01;;;;;;;2.97;1.20;;;;;;;16.88;40.54;100694.00;16128554;19;129856;-40
2022/12/08 12:46:25;;;;;;;4.18;1.10;;;;;;;16.87;40.45;100686.78;16123273;19;130572;-40
2022/12/08 12:51:53;;;;;;;3.30;0.90;;;;;;;16.88;40.21;100685.69;16125302;19;130358;-43
2022/12/08 12:57:21;;;;;;;1.60;0.80;;;;;;;16.87;40.09;100686.78;16130184;19;129644;-42
2022/12/08 13:02:42;;;;;;;2.20;0.88;;;;;;;16.86;40.24;100693.38;16135017;19;129366;-40
2022/12/08 13:08:23;;;;;;;2.30;1.15;;;;;;;16.87;39.95;100695.91;16134347;19;129534;-40
2022/12/08 13:13:55;;;;;;;2.92;0.88;;;;;;;16.86;40.36;100685.09;16133434;19;129312;-41
2022/12/08 13:19:17;;;;;;;1.60;0.80;;;;;;;16.84;40.28;100678.97;16132477;19;129404;-41
2022/12/08 13:24:39;;;;;;;2.97;0.80;;;;;;;16.83;40.42;100685.56;16133866;19;136413;-43
2022/12/08 13:30:37;;;;;;;3.42;1.25;;;;;;;16.84;40.20;100690.88;16130975;19;129682;-42
2022/12/08 13:36:09;;;;;;;2.03;0.98;;;;;;;16.81;39.70;100674.78;16127940;19;129444;-41
2022/12/08 13:41:40;;;;;;;2.20;0.90;;;;;;;16.81;40.01;100666.47;16131960;19;129366;-43
2022/12/08 13:47:03;;;;;;;1.63;1.20;;;;;;;16.80;40.12;100667.56;16128368;19;129758;-42
2022/12/08 13:53:17;;;;;;;2.55;0.77;;;;;;;16.81;39.79;100662.88;16129663;19;130404;-40
2022/12/08 13:59:29;;;;;;;5.28;1.10;;;;;;;16.80;39.81;100650.97;16131422;19;135287;-40
2022/12/08 14:04:51;;;;;;;2.25;0.82;;;;;;;16.79;39.78;100652.06;16131518;19;129329;-40
2022/12/08 14:10:33;;;;;;;2.10;0.93;;;;;;;16.77;39.58;100668.88;16130086;19;130364;-40
2022/12/08 14:15:55;;;;;;;1.52;0.80;;;;;;;16.77;39.86;100679.94;16128262;19;129435;-42
2022/12/08 14:21:17;;;;;;;3.03;0.90;;;;;;;16.77;39.86;100673.56;16127370;19;129937;-40
2022/12/08 14:26:46;;;;;;;4.63;0.70;;;;;;;16.77;39.88;100670.78;16130939;19;129393;-40
2022/12/08 14:32:24;;;;;;;1.75;0.80;;;;;;;16.77;39.50;100671.66;16129130;19;129376;-42
2022/12/08 14:37:49;;;;;;;0.90;0.60;;;;;;;16.74;40.09;100668.50;16127173;19;129850;-41
2022/12/08 14:43:13;;;;;;;1.02;0.40;;;;;;;16.73;39.95;100655.81;16128294;19;129551;-39
2022/12/08 14:48:35;;;;;;;1.40;0.70;;;;;;;16.73;40.05;100664.91;16126230;19;129505;-41
2022/12/08 14:54:08;;;;;;;0.90;0.45;;;;;;;16.75;40.04;100661.91;16128061;19;129589;-39
2022/12/08 14:59:34;;;;;;;0.47;0.30;;;;;;;16.73;39.90;100666.84;16125786;19;129710;-40
2022/12/08 15:05:03;;;;;;;0.98;0.50;;;;;;;16.73;39.92;100655.81;16125474;19;129389;-39
2022/12/08 15:10:28;;;;;;;2.90;0.50;;;;;;;16.72;39.85;100670.69;16125781;19;129873;-41
2022/12/08 15:15:55;;;;;;;0.80;0.60;;;;;;;16.72;40.00;100670.69;16124527;19;129367;-41
2022/12/08 15:21:17;;;;;;;1.15;0.45;;;;;;;16.71;39.69;100685.59;16123591;19;129568;-42
2022/12/08 15:26:47;;;;;;;1.35;0.40;;;;;;;16.72;40.07;100692.78;16125480;19;133084;-44
2022/12/08 15:32:10;;;;;;;1.95;0.57;;;;;;;16.70;39.84;100675.59;16121847;19;129411;-40
2022/12/08 15:37:32;;;;;;;2.58;0.57;;;;;;;16.68;39.93;100675.81;16124480;19;130620;-43
2022/12/08 15:42:54;;;;;;;1.98;0.57;;;;;;;16.68;39.73;100669.47;16124587;19;130039;-39
2022/12/08 15:48:21;;;;;;;0.73;0.40;;;;;;;16.68;39.77;100670.31;16122009;19;129468;-42
2022/12/08 15:53:43;;;;;;;3.28;0.70;;;;;;;16.66;39.96;100669.72;16123047;19;129508;-41
2022/12/08 15:59:05;;;;;;;1.08;0.50;;;;;;;16.65;40.07;100668.00;16121295;19;129455;-40
2022/12/08 16:04:26;;;;;;;2.17;0.30;;;;;;;16.66;40.13;100668.84;16120940;19;129320;-41
2022/12/08 16:10:21;;;;;;;0.68;0.38;;;;;;;16.67;40.08;100673.31;16121571;19;129535;-42
2022/12/08 16:15:43;;;;;;;1.40;0.50;;;;;;;16.63;39.90;100671.00;16121943;19;130818;-40
2022/12/08 16:21:19;;;;;;;0.63;0.40;;;;;;;16.63;39.64;100659.94;16118774;19;131055;-40
2022/12/08 16:27:01;;;;;;;1.23;0.38;;;;;;;16.63;40.07;100651.66;16120199;19;129391;-41
2022/12/08 16:32:42;;;;;;;1.70;0.50;;;;;;;16.63;39.73;100650.84;16118804;19;129340;-44
2022/12/08 16:38:04;;;;;;;3.15;0.50;;;;;;;16.62;39.65;100649.97;16116425;19;129171;-40
2022/12/08 16:43:26;;;;;;;3.10;0.40;;;;;;;16.62;39.94;100655.50;16116429;19;130207;-43
2022/12/08 16:48:48;;;;;;;10.40;0.70;;;;;;;16.70;39.82;100657.09;16114103;19;129931;-41
2022/12/08 16:54:11;;;;;;;9.90;0.70;;;;;;;17.06;39.59;100654.34;16114177;19;129796;-44
2022/12/08 16:59:32;;;;;;;8.18;0.88;;;;;;;17.61;38.65;100655.78;16118685;19;130353;-44
2022/12/08 17:04:54;;;;;;;14.82;0.93;;;;;;;18.24;38.48;100635.63;16117695;19;130468;-41
2022/12/08 17:10:19;;;;;;;9.68;1.25;;;;;;;18.82;37.26;100641.00;16124842;19;130575;-42
2022/12/08 17:15:41;;;;;;;4.23;0.70;;;;;;;19.29;36.93;100650.81;16131932;19;129595;-42
2022/12/08 17:21:09;;;;;;;7.95;0.68;;;;;;;19.57;36.44;100651.72;16130061;19;129642;-42
2022/12/08 17:26:30;;;;;;;5.05;0.70;;;;;;;19.61;36.41;100658.44;16132239;19;129892;-44
2022/12/08 17:31:52;;;;;;;4.32;0.70;;;;;;;19.54;36.63;100650.31;16130339;19;129675;-41
2022/12/08 17:37:15;;;;;;;2.63;0.80;;;;;;;19.41;36.40;100647.91;16131449;19;129919;-42
2022/12/08 17:42:37;;;;;;;9.85;1.13;;;;;;;19.24;36.66;100648.81;16129793;19;129232;-42
2022/12/08 17:47:59;;;;;;;5.97;0.70;;;;;;;19.07;37.02;100635.81;16125677;19;129993;-42
2022/12/08 17:53:22;;;;;;;2.90;0.90;;;;;;;18.93;37.41;100623.44;16125905;19;130265;-41
2022/12/08 17:58:43;;;;;;;15.23;1.80;;;;;;;18.81;37.66;100629.06;16127628;19;130363;-41
2022/12/08 18:04:11;;;;;;;29.23;2.42;;;;;;;18.84;38.00;100627.72;16127741;19;129528;-42
2022/12/08 18:09:33;;;;;;;22.33;2.42;;;;;;;19.01;37.78;100620.19;16128197;19;130684;-40
2022/12/08 18:14:55;;;;;;;17.67;2.13;;;;;;;19.21;38.06;100622.44;16127452;19;129312;-46
2022/12/08 18:20:17;;;;;;;18.42;2.05;;;;;;;19.33;37.98;100625.06;16125568;19;129860;-42
2022/12/08 18:25:39;;;;;;;23.40;2.20;;;;;;;19.33;38.08;100624.25;16123371;19;136136;-41
2022/12/08 18:31:00;;;;;;;14.75;1.75;;;;;;;19.31;38.17;100629.22;16123723;19;129921;-41
2022/12/08 18:36:24;;;;;;;14.65;1.60;;;;;;;19.40;38.05;100633.19;16122952;19;129673;-42
2022/12/08 18:41:46;;;;;;;20.92;2.20;;;;;;;19.55;37.88;100626.16;16041219;19;131728;-44
2022/12/08 18:47:07;;;;;;;17.17;1.63;;;;;;;19.67;38.07;100629.63;16121595;19;129398;-48
2022/12/08 18:52:29;;;;;;;18.95;1.92;;;;;;;19.77;37.67;100634.47;16122503;19;129420;-46
2022/12/08 18:57:53;;;;;;;7.80;1.52;;;;;;;19.87;37.62;100628.19;16124191;19;129617;-48
2022/12/08 19:03:14;;;;;;;12.82;1.10;;;;;;;19.95;37.94;100624.91;16124307;19;130204;-47
2022/12/08 19:08:36;;;;;;;11.50;1.60;;;;;;;20.00;37.42;100622.22;16125090;19;129105;-42
2022/12/08 19:13:58;;;;;;;12.38;1.60;;;;;;;19.99;37.90;100623.31;16123803;19;129409;-40
2022/12/08 19:19:20;;;;;;;9.38;1.33;;;;;;;19.94;38.03;100623.25;16119849;19;129558;-46
2022/12/08 19:24:42;;;;;;;9.68;1.00;;;;;;;19.83;38.12;100625.91;16121795;19;130076;-42
2022/12/08 19:30:05;;;;;;;13.60;1.13;;;;;;;19.74;38.21;100626.63;16119723;19;130980;-43
2022/12/08 19:35:27;;;;;;;8.02;0.95;;;;;;;19.63;38.26;100617.38;16121150;19;129543;-45
2022/12/08 19:46:28;;;;;;;5.35;0.90;;;;;;;19.41;38.28;100609.91;16122458;19;130633;-43
2022/12/08 19:51:55;;;;;;;7.10;1.17;;;;;;;19.35;38.73;100608.19;16122801;19;129141;-44
2022/12/08 19:57:16;;;;;;;7.65;0.80;;;;;;;19.42;38.77;100605.22;16122744;19;129603;-48
2022/12/08 20:02:38;;;;;;;5.82;1.10;;;;;;;19.55;38.50;100615.91;16123737;19;129654;-45
2022/12/08 20:08:00;;;;;;;8.30;1.15;;;;;;;19.60;38.11;100618.72;16121967;19;129001;-44
2022/12/08 20:13:40;;;;;;;6.57;0.80;;;;;;;19.60;38.38;100601.25;16122063;19;129861;-43
2022/12/08 20:19:02;;;;;;;6.10;1.17;;;;;;;19.52;38.25;100611.69;16119713;19;129599;-41
2022/12/08 20:24:24;;;;;;;5.85;1.30;;;;;;;19.43;38.61;100607.72;16119005;19;129894;-43
2022/12/08 20:29:45;;;;;;;7.60;1.45;;;;;;;19.34;38.75;100614.81;16121579;19;129730;-41
2022/12/08 20:35:07;;;;;;;10.70;0.95;;;;;;;19.25;38.88;100605.28;16120193;19;129809;-44
2022/12/08 20:40:29;;;;;;;13.95;1.48;;;;;;;19.22;39.01;100617.72;16117182;19;129554;-43
2022/12/08 20:45:51;;;;;;;10.57;1.35;;;;;;;19.47;38.64;100613.56;16129294;19;129471;-42
2022/12/08 20:51:15;;;;;;;10.70;1.30;;;;;;;19.90;38.13;100620.16;16133151;19;129944;-43
2022/12/08 20:56:38;;;;;;;6.53;1.38;;;;;;;20.45;37.61;100611.75;16133216;19;130320;-43
2022/12/08 21:02:12;;;;;;;16.95;1.40;;;;;;;20.92;36.95;100615.72;16133245;19;129891;-42
2022/12/08 21:07:34;;;;;;;7.45;0.93;;;;;;;21.30;36.99;100623.94;16133478;19;135120;-42
2022/12/08 21:12:55;;;;;;;9.50;1.15;;;;;;;21.40;36.53;100632.34;16132363;19;130054;-42
2022/12/08 21:18:18;;;;;;;5.82;0.90;;;;;;;21.39;36.67;100641.81;16133564;19;128906;-43
2022/12/08 21:23:41;;;;;;;6.88;1.00;;;;;;;21.26;36.68;100631.19;16122675;19;129548;-44
2022/12/08 21:29:03;;;;;;;10.50;1.10;;;;;;;21.02;36.71;100638.00;16128274;19;130837;-41
2022/12/08 21:34:30;;;;;;;9.07;1.40;;;;;;;20.82;36.98;100638.72;16128540;19;130133;-47
2022/12/08 21:39:52;;;;;;;13.77;1.60;;;;;;;20.64;37.00;100636.34;16126744;19;130808;-42
2022/12/08 21:45:16;;;;;;;5.18;1.15;;;;;;;20.45;36.94;100633.97;16127015;19;131031;-41
2022/12/08 21:50:38;;;;;;;14.65;1.85;;;;;;;20.29;37.15;100625.56;16130875;19;130911;-43
2022/12/08 21:56:00;;;;;;;22.27;2.00;;;;;;;20.12;37.96;100617.31;16128630;19;129647;-42
2022/12/08 22:01:22;;;;;;;18.80;2.17;;;;;;;19.97;37.90;100619.94;16127196;19;130421;-44
2022/12/08 22:06:44;;;;;;;20.50;2.20;;;;;;;19.87;38.07;100623.44;16128858;19;129205;-44
2022/12/08 22:18:29;;;;;;;33.30;2.92;;;;;;;19.56;38.71;100616.75;16128149;19;129981;-43
2022/12/08 22:23:51;;;;;;;24.55;2.45;;;;;;;19.42;38.54;100617.13;16124389;19;130619;-42
2022/12/08 22:29:13;;;;;;;18.73;2.30;;;;;;;19.31;38.70;100618.13;16123450;19;129289;-44
2022/12/08 22:34:35;;;;;;;23.45;1.70;;;;;;;19.19;38.60;100618.22;16128630;19;129578;-43
2022/12/08 22:39:57;;;;;;;19.30;1.77;;;;;;;19.12;38.92;100606.47;16130045;19;129718;-42
2022/12/08 22:45:18;;;;;;;9.45;1.48;;;;;;;19.06;38.66;100602.78;16129660;19;134325;-43
2022/12/08 22:50:41;;;;;;;9.43;1.95;;;;;;;18.98;38.65;100604.06;16128967;19;129177;-42
2022/12/08 22:56:04;;;;;;;8.82;1.23;;;;;;;18.88;38.92;100610.34;16128481;19;129510;-45
2022/12/08 23:01:28;;;;;;;14.70;1.75;;;;;;;18.82;38.77;100613.28;16125228;19;129917;-41
2022/12/08 23:06:50;;;;;;;6.77;1.40;;;;;;;18.75;38.92;100594.91;16121623;19;129578;-42
2022/12/08 23:12:12;;;;;;;6.32;1.10;;;;;;;18.70;38.79;100594.84;16126924;19;129560;-42
2022/12/08 23:17:34;;;;;;;7.35;1.00;;;;;;;18.63;38.91;100593.34;16127734;19;130393;-44
2022/12/08 23:22:56;;;;;;;8.75;1.25;;;;;;;18.57;39.33;100584.94;16124425;19;129177;-42
2022/12/08 23:28:18;;;;;;;7.35;1.05;;;;;;;18.54;39.17;100599.28;16125271;19;129563;-43
2022/12/08 23:33:40;;;;;;;8.38;1.45;;;;;;;18.50;39.23;100594.50;16125980;19;129752;-42
2022/12/08 23:39:03;;;;;;;3.15;1.05;;;;;;;18.44;38.89;100597.22;16123067;19;130228;-42
2022/12/08 23:44:25;;;;;;;3.80;0.88;;;;;;;18.38;39.22;100581.56;16122681;19;129630;-42
2022/12/08 23:49:47;;;;;;;3.90;0.60;;;;;;;18.33;39.38;100587.03;16122862;19;129511;-42
2022/12/08 23:55:09;;;;;;;5.70;1.10;;;;;;;18.28;39.26;100586.97;16120475;19;129413;-44
